sensor_id;sensor_type;location;lat;lon;timestamp;pressure;altitude;pressure_sealevel;temperature
43802;BMP280;29429;51.074;13.764;2023-07-31T00:00:09;99715.13;;;16.80
43802;BMP280;29429;51.074;13.764;2023-07-31T00:02:37;99713.25;;;16.80
43802;BMP280;29429;51.074;13.764;2023-07-31T00:05:05;99708.69;;;16.81
43802;BMP280;29429;51.074;13.764;2023-07-31T00:07:33;99708.44;;;16.82
43802;BMP280;29429;51.074;13.764;2023-07-31T00:10:01;99709.00;;;16.84
43802;BMP280;29429;51.074;13.764;2023-07-31T00:12:28;99699.03;;;16.85
43802;BMP280;29429;51.074;13.764;2023-07-31T00:14:56;99704.50;;;16.90
43802;BMP280;29429;51.074;13.764;2023-07-31T00:17:23;99704.25;;;16.91
43802;BMP280;29429;51.074;13.764;2023-07-31T00:19:50;99705.59;;;16.89
43802;BMP280;29429;51.074;13.764;2023-07-31T00:22:18;99705.59;;;16.89
43802;BMP280;29429;51.074;13.764;2023-07-31T00:24:45;99703.13;;;16.87
43802;BMP280;29429;51.074;13.764;2023-07-31T00:27:13;99704.44;;;16.85
43802;BMP280;29429;51.074;13.764;2023-07-31T00:29:40;99711.59;;;16.79
43802;BMP280;29429;51.074;13.764;2023-07-31T00:32:08;99701.03;;;16.73
43802;BMP280;29429;51.074;13.764;2023-07-31T00:34:37;99709.88;;;16.73
43802;BMP280;29429;51.074;13.764;2023-07-31T00:37:10;99707.72;;;16.70
43802;BMP280;29429;51.074;13.764;2023-07-31T00:40:23;99696.75;;;16.60
43802;BMP280;29429;51.074;13.764;2023-07-31T00:42:51;99695.38;;;16.58
43802;BMP280;29429;51.074;13.764;2023-07-31T00:45:19;99692.94;;;16.56
43802;BMP280;29429;51.074;13.764;2023-07-31T00:47:46;99695.63;;;16.56
43802;BMP280;29429;51.074;13.764;2023-07-31T00:50:14;99691.84;;;16.40
43802;BMP280;29429;51.074;13.764;2023-07-31T00:52:41;99689.72;;;16.42
43802;BMP280;29429;51.074;13.764;2023-07-31T00:55:09;99694.28;;;16.42
43802;BMP280;29429;51.074;13.764;2023-07-31T00:57:38;99688.06;;;16.41
43802;BMP280;29429;51.074;13.764;2023-07-31T01:00:07;99685.72;;;16.45
43802;BMP280;29429;51.074;13.764;2023-07-31T01:02:35;99686.53;;;16.45
43802;BMP280;29429;51.074;13.764;2023-07-31T01:05:03;99688.06;;;16.41
43802;BMP280;29429;51.074;13.764;2023-07-31T01:10:27;99687.84;;;16.43
43802;BMP280;29429;51.074;13.764;2023-07-31T01:12:57;99677.22;;;16.36
43802;BMP280;29429;51.074;13.764;2023-07-31T01:15:25;99675.34;;;16.37
43802;BMP280;29429;51.074;13.764;2023-07-31T01:17:52;99677.47;;;16.35
43802;BMP280;29429;51.074;13.764;2023-07-31T01:20:24;99673.75;;;16.36
43802;BMP280;29429;51.074;13.764;2023-07-31T01:26:13;99667.19;;;16.32
43802;BMP280;29429;51.074;13.764;2023-07-31T01:31:26;99671.44;;;16.28
43802;BMP280;29429;51.074;13.764;2023-07-31T01:34:00;99661.47;;;16.28
43802;BMP280;29429;51.074;13.764;2023-07-31T01:36:28;99672.00;;;16.30
43802;BMP280;29429;51.074;13.764;2023-07-31T01:39:01;99663.44;;;16.33
43802;BMP280;29429;51.074;13.764;2023-07-31T01:41:28;99663.44;;;16.33
43802;BMP280;29429;51.074;13.764;2023-07-31T01:43:56;99664.50;;;16.32
43802;BMP280;29429;51.074;13.764;2023-07-31T01:46:23;99662.16;;;16.35
43802;BMP280;29429;51.074;13.764;2023-07-31T01:48:51;99665.16;;;16.39
43802;BMP280;29429;51.074;13.764;2023-07-31T01:51:18;99665.97;;;16.39
43802;BMP280;29429;51.074;13.764;2023-07-31T01:53:46;99658.56;;;16.47
43802;BMP280;29429;51.074;13.764;2023-07-31T01:56:13;99654.78;;;16.48
43802;BMP280;29429;51.074;13.764;2023-07-31T01:58:41;99660.28;;;16.53
43802;BMP280;29429;51.074;13.764;2023-07-31T02:01:08;99656.75;;;16.52
43802;BMP280;29429;51.074;13.764;2023-07-31T02:03:36;99647.66;;;16.53
43802;BMP280;29429;51.074;13.764;2023-07-31T02:06:03;99655.78;;;16.58
43802;BMP280;29429;51.074;13.764;2023-07-31T02:08:31;99641.91;;;16.66
43802;BMP280;29429;51.074;13.764;2023-07-31T02:10:58;99643.56;;;16.67
43802;BMP280;29429;51.074;13.764;2023-07-31T02:13:26;99644.75;;;16.76
43802;BMP280;29429;51.074;13.764;2023-07-31T02:15:53;99643.22;;;16.80
43802;BMP280;29429;51.074;13.764;2023-07-31T02:18:20;99643.22;;;16.80
43802;BMP280;29429;51.074;13.764;2023-07-31T02:20:50;99643.63;;;16.89
43802;BMP280;29429;51.074;13.764;2023-07-31T02:23:18;99637.78;;;16.97
43802;BMP280;29429;51.074;13.764;2023-07-31T02:25:46;99639.47;;;17.03
43802;BMP280;29429;51.074;13.764;2023-07-31T02:28:14;99637.66;;;17.09
43802;BMP280;29429;51.074;13.764;2023-07-31T02:30:44;99644.75;;;17.15
43802;BMP280;29429;51.074;13.764;2023-07-31T02:33:14;99636.19;;;17.18
43802;BMP280;29429;51.074;13.764;2023-07-31T02:35:41;99642.13;;;17.20
43802;BMP280;29429;51.074;13.764;2023-07-31T02:38:09;99640.53;;;17.24
43802;BMP280;29429;51.074;13.764;2023-07-31T02:40:36;99635.47;;;17.27
43802;BMP280;29429;51.074;13.764;2023-07-31T02:43:03;99636.03;;;17.29
43802;BMP280;29429;51.074;13.764;2023-07-31T02:45:31;99637.41;;;17.32
43802;BMP280;29429;51.074;13.764;2023-07-31T02:47:58;99631.22;;;17.31
43802;BMP280;29429;51.074;13.764;2023-07-31T02:50:26;99629.31;;;17.32
43802;BMP280;29429;51.074;13.764;2023-07-31T02:52:54;99631.72;;;17.28
43802;BMP280;29429;51.074;13.764;2023-07-31T02:55:22;99634.09;;;17.25
43802;BMP280;29429;51.074;13.764;2023-07-31T02:57:49;99635.69;;;17.21
43802;BMP280;29429;51.074;13.764;2023-07-31T03:00:17;99634.03;;;17.20
43802;BMP280;29429;51.074;13.764;2023-07-31T03:02:44;99634.31;;;17.18
43802;BMP280;29429;51.074;13.764;2023-07-31T03:05:13;99634.53;;;17.17
43802;BMP280;29429;51.074;13.764;2023-07-31T03:07:40;99637.28;;;17.22
43802;BMP280;29429;51.074;13.764;2023-07-31T03:10:08;99637.56;;;17.20
43802;BMP280;29429;51.074;13.764;2023-07-31T03:12:35;99634.66;;;17.27
43802;BMP280;29429;51.074;13.764;2023-07-31T03:15:03;99647.66;;;17.30
43802;BMP280;29429;51.074;13.764;2023-07-31T03:17:30;99643.41;;;17.34
43802;BMP280;29429;51.074;13.764;2023-07-31T03:19:58;99642.88;;;17.37
43802;BMP280;29429;51.074;13.764;2023-07-31T03:22:25;99632.16;;;17.42
43802;BMP280;29429;51.074;13.764;2023-07-31T03:24:53;99640.53;;;17.45
43802;BMP280;29429;51.074;13.764;2023-07-31T03:27:20;99637.91;;;17.50
43802;BMP280;29429;51.074;13.764;2023-07-31T03:29:47;99643.38;;;17.55
43802;BMP280;29429;51.074;13.764;2023-07-31T03:32:16;99655.53;;;17.58
43802;BMP280;29429;51.074;13.764;2023-07-31T03:34:44;99648.34;;;17.63
43802;BMP280;29429;51.074;13.764;2023-07-31T03:37:11;99644.91;;;17.68
43802;BMP280;29429;51.074;13.764;2023-07-31T03:39:39;99643.88;;;17.74
43802;BMP280;29429;51.074;13.764;2023-07-31T03:42:07;99636.09;;;17.78
43802;BMP280;29429;51.074;13.764;2023-07-31T03:44:35;99636.97;;;17.83
43802;BMP280;29429;51.074;13.764;2023-07-31T03:47:04;99648.84;;;17.87
43802;BMP280;29429;51.074;13.764;2023-07-31T03:49:32;99642.13;;;17.90
43802;BMP280;29429;51.074;13.764;2023-07-31T03:52:00;99643.28;;;17.94
43802;BMP280;29429;51.074;13.764;2023-07-31T03:54:27;99637.09;;;17.98
43802;BMP280;29429;51.074;13.764;2023-07-31T03:56:55;99636.03;;;17.99
43802;BMP280;29429;51.074;13.764;2023-07-31T03:59:22;99631.75;;;18.03
43802;BMP280;29429;51.074;13.764;2023-07-31T04:01:49;99631.22;;;18.06
43802;BMP280;29429;51.074;13.764;2023-07-31T04:04:17;99635.31;;;18.09
43802;BMP280;29429;51.074;13.764;2023-07-31T04:06:44;99623.69;;;18.08
43802;BMP280;29429;51.074;13.764;2023-07-31T04:09:11;99625.63;;;18.13
43802;BMP280;29429;51.074;13.764;2023-07-31T04:11:39;99631.31;;;18.16
43802;BMP280;29429;51.074;13.764;2023-07-31T04:14:06;99625.69;;;18.18
43802;BMP280;29429;51.074;13.764;2023-07-31T04:16:34;99613.75;;;18.14
43802;BMP280;29429;51.074;13.764;2023-07-31T04:19:01;99627.56;;;18.17
43802;BMP280;29429;51.074;13.764;2023-07-31T04:21:30;99623.78;;;18.18
43802;BMP280;29429;51.074;13.764;2023-07-31T04:23:57;99628.06;;;18.14
43802;BMP280;29429;51.074;13.764;2023-07-31T04:26:25;99620.53;;;18.16
43802;BMP280;29429;51.074;13.764;2023-07-31T04:28:52;99624.81;;;18.12
43802;BMP280;29429;51.074;13.764;2023-07-31T04:31:20;99620.25;;;18.13
43802;BMP280;29429;51.074;13.764;2023-07-31T04:33:47;99613.50;;;18.15
43802;BMP280;29429;51.074;13.764;2023-07-31T04:36:14;99608.63;;;18.12
43802;BMP280;29429;51.074;13.764;2023-07-31T04:38:42;99609.44;;;18.13
43802;BMP280;29429;51.074;13.764;2023-07-31T04:41:09;99607.03;;;18.16
43802;BMP280;29429;51.074;13.764;2023-07-31T04:43:36;99608.63;;;18.12
43802;BMP280;29429;51.074;13.764;2023-07-31T04:46:06;99605.66;;;18.14
43802;BMP280;29429;51.074;13.764;2023-07-31T04:48:33;99594.59;;;18.15
43802;BMP280;29429;51.074;13.764;2023-07-31T04:51:01;99594.09;;;18.18
43802;BMP280;29429;51.074;13.764;2023-07-31T04:53:28;99600.56;;;18.17
43802;BMP280;29429;51.074;13.764;2023-07-31T04:55:55;99597.84;;;18.17
43802;BMP280;29429;51.074;13.764;2023-07-31T04:58:23;99594.84;;;18.14
43802;BMP280;29429;51.074;13.764;2023-07-31T05:00:50;99592.16;;;18.14
43802;BMP280;29429;51.074;13.764;2023-07-31T05:03:18;99594.06;;;18.13
43802;BMP280;29429;51.074;13.764;2023-07-31T05:05:45;99588.13;;;18.16
43802;BMP280;29429;51.074;13.764;2023-07-31T05:08:13;99589.75;;;18.17
43802;BMP280;29429;51.074;13.764;2023-07-31T05:10:40;99583.53;;;18.17
43802;BMP280;29429;51.074;13.764;2023-07-31T05:13:07;99586.50;;;18.15
43802;BMP280;29429;51.074;13.764;2023-07-31T05:15:35;99584.38;;;18.17
43802;BMP280;29429;51.074;13.764;2023-07-31T05:18:02;99580.59;;;18.18
43802;BMP280;29429;51.074;13.764;2023-07-31T05:20:30;99582.22;;;18.19
43802;BMP280;29429;51.074;13.764;2023-07-31T05:22:57;99582.22;;;18.19
43802;BMP280;29429;51.074;13.764;2023-07-31T05:25:24;99579.00;;;18.22
43802;BMP280;29429;51.074;13.764;2023-07-31T05:27:52;99573.91;;;18.26
43802;BMP280;29429;51.074;13.764;2023-07-31T05:30:19;99567.72;;;18.31
43802;BMP280;29429;51.074;13.764;2023-07-31T05:32:48;99573.66;;;18.33
43802;BMP280;29429;51.074;13.764;2023-07-31T05:35:15;99568.03;;;18.34
43802;BMP280;29429;51.074;13.764;2023-07-31T05:37:43;99573.16;;;18.36
43802;BMP280;29429;51.074;13.764;2023-07-31T05:40:10;99558.81;;;18.35
43802;BMP280;29429;51.074;13.764;2023-07-31T05:42:37;99567.75;;;18.36
43802;BMP280;29429;51.074;13.764;2023-07-31T05:45:06;99567.25;;;18.39
43802;BMP280;29429;51.074;13.764;2023-07-31T05:47:34;99565.03;;;18.36
43802;BMP280;29429;51.074;13.764;2023-07-31T05:50:02;99564.03;;;18.42
43802;BMP280;29429;51.074;13.764;2023-07-31T05:52:29;99563.81;;;18.48
43802;BMP280;29429;51.074;13.764;2023-07-31T05:54:57;99559.00;;;18.55
43802;BMP280;29429;51.074;13.764;2023-07-31T05:57:24;99566.59;;;18.58
43802;BMP280;29429;51.074;13.764;2023-07-31T05:59:51;99563.91;;;18.58
43802;BMP280;29429;51.074;13.764;2023-07-31T06:02:20;99560.91;;;18.60
43802;BMP280;29429;51.074;13.764;2023-07-31T06:04:48;99562.56;;;18.61
43802;BMP280;29429;51.074;13.764;2023-07-31T06:07:15;99555.50;;;18.60
43802;BMP280;29429;51.074;13.764;2023-07-31T06:09:43;99562.28;;;18.62
43802;BMP280;29429;51.074;13.764;2023-07-31T06:12:10;99561.47;;;18.62
43802;BMP280;29429;51.074;13.764;2023-07-31T06:14:38;99557.16;;;18.61
43802;BMP280;29429;51.074;13.764;2023-07-31T06:17:06;99554.16;;;18.57
43802;BMP280;29429;51.074;13.764;2023-07-31T06:19:33;99553.34;;;18.57
43802;BMP280;29429;51.074;13.764;2023-07-31T06:22:01;99552.50;;;18.56
43802;BMP280;29429;51.074;13.764;2023-07-31T06:24:28;99558.50;;;18.58
43802;BMP280;29429;51.074;13.764;2023-07-31T06:26:56;99558.22;;;18.60
43802;BMP280;29429;51.074;13.764;2023-07-31T06:29:24;99556.84;;;18.57
43802;BMP280;29429;51.074;13.764;2023-07-31T06:31:52;99559.59;;;18.62
43802;BMP280;29429;51.074;13.764;2023-07-31T06:34:19;99555.53;;;18.65
43802;BMP280;29429;51.074;13.764;2023-07-31T06:36:47;99555.81;;;18.63
43802;BMP280;29429;51.074;13.764;2023-07-31T06:39:15;99558.78;;;18.67
43802;BMP280;29429;51.074;13.764;2023-07-31T06:41:43;99560.44;;;18.73
43802;BMP280;29429;51.074;13.764;2023-07-31T06:44:11;99560.47;;;18.78
43802;BMP280;29429;51.074;13.764;2023-07-31T06:46:38;99565.09;;;18.82
43802;BMP280;29429;51.074;13.764;2023-07-31T06:49:06;99558.34;;;18.85
43802;BMP280;29429;51.074;13.764;2023-07-31T06:51:34;99552.69;;;18.92
43802;BMP280;29429;51.074;13.764;2023-07-31T06:54:02;99541.06;;;18.91
43802;BMP280;29429;51.074;13.764;2023-07-31T06:56:30;99544.38;;;18.98
43802;BMP280;29429;51.074;13.764;2023-07-31T06:58:57;99552.78;;;19.12
43802;BMP280;29429;51.074;13.764;2023-07-31T07:01:24;99552.28;;;19.25
43802;BMP280;29429;51.074;13.764;2023-07-31T07:03:53;99552.56;;;19.33
43802;BMP280;29429;51.074;13.764;2023-07-31T07:06:22;99554.25;;;19.39
43802;BMP280;29429;51.074;13.764;2023-07-31T07:08:50;99554.25;;;19.44
43802;BMP280;29429;51.074;13.764;2023-07-31T07:11:17;99558.88;;;19.54
43802;BMP280;29429;51.074;13.764;2023-07-31T07:13:44;99553.22;;;19.66
43802;BMP280;29429;51.074;13.764;2023-07-31T07:16:12;99548.91;;;19.75
43802;BMP280;29429;51.074;13.764;2023-07-31T07:18:39;99556.75;;;19.86
43802;BMP280;29429;51.074;13.764;2023-07-31T07:21:20;99552.16;;;19.87
43802;BMP280;29429;51.074;13.764;2023-07-31T07:23:47;99558.09;;;19.94
43802;BMP280;29429;51.074;13.764;2023-07-31T07:26:15;99557.03;;;20.05
43802;BMP280;29429;51.074;13.764;2023-07-31T07:28:42;99555.94;;;20.16
43802;BMP280;29429;51.074;13.764;2023-07-31T07:31:09;99545.13;;;20.31
43802;BMP280;29429;51.074;13.764;2023-07-31T07:33:37;99551.06;;;20.43
43802;BMP280;29429;51.074;13.764;2023-07-31T07:36:04;99550.25;;;20.43
43802;BMP280;29429;51.074;13.764;2023-07-31T07:38:32;99550.22;;;20.58
43802;BMP280;29429;51.074;13.764;2023-07-31T07:41:00;99545.84;;;20.72
43802;BMP280;29429;51.074;13.764;2023-07-31T07:43:27;99541.47;;;20.81
43802;BMP280;29429;51.074;13.764;2023-07-31T07:48:22;99544.34;;;21.05
43802;BMP280;29429;51.074;13.764;2023-07-31T07:50:50;99547.09;;;21.10
43802;BMP280;29429;51.074;13.764;2023-07-31T07:53:18;99535.66;;;21.13
43802;BMP280;29429;51.074;13.764;2023-07-31T07:55:45;99543.00;;;21.12
43802;BMP280;29429;51.074;13.764;2023-07-31T07:58:13;99547.06;;;21.05
43802;BMP280;29429;51.074;13.764;2023-07-31T08:00:40;99546.00;;;21.01
43802;BMP280;29429;51.074;13.764;2023-07-31T08:03:07;99553.31;;;21.00
43802;BMP280;29429;51.074;13.764;2023-07-31T08:05:35;99557.97;;;20.90
43802;BMP280;29429;51.074;13.764;2023-07-31T08:08:02;99552.59;;;20.80
43802;BMP280;29429;51.074;13.764;2023-07-31T08:10:30;99546.34;;;20.79
43802;BMP280;29429;51.074;13.764;2023-07-31T08:12:57;99568.59;;;20.86
43802;BMP280;29429;51.074;13.764;2023-07-31T08:15:24;99553.66;;;20.79
43802;BMP280;29429;51.074;13.764;2023-07-31T08:17:52;99551.25;;;20.77
43802;BMP280;29429;51.074;13.764;2023-07-31T08:20:19;99552.31;;;20.76
43802;BMP280;29429;51.074;13.764;2023-07-31T08:22:47;99549.88;;;20.85
43802;BMP280;29429;51.074;13.764;2023-07-31T08:25:14;99554.44;;;20.89
43802;BMP280;29429;51.074;13.764;2023-07-31T08:27:45;99553.09;;;20.97
43802;BMP280;29429;51.074;13.764;2023-07-31T08:30:12;99554.41;;;21.04
43802;BMP280;29429;51.074;13.764;2023-07-31T08:32:40;99553.03;;;21.12
43802;BMP280;29429;51.074;13.764;2023-07-31T08:35:07;99550.84;;;21.19
43802;BMP280;29429;51.074;13.764;2023-07-31T08:37:35;99547.59;;;21.17
43802;BMP280;29429;51.074;13.764;2023-07-31T08:40:03;99545.97;;;21.16
43802;BMP280;29429;51.074;13.764;2023-07-31T08:42:31;99543.56;;;21.09
43802;BMP280;29429;51.074;13.764;2023-07-31T08:45:16;99549.56;;;20.96
43802;BMP280;29429;51.074;13.764;2023-07-31T08:47:46;99553.09;;;20.97
43802;BMP280;29429;51.074;13.764;2023-07-31T08:50:17;99546.81;;;21.01
43802;BMP280;29429;51.074;13.764;2023-07-31T08:52:47;99542.25;;;20.97
43802;BMP280;29429;51.074;13.764;2023-07-31T08:55:15;99548.75;;;20.96
43802;BMP280;29429;51.074;13.764;2023-07-31T08:57:43;99543.38;;;20.81
43802;BMP280;29429;51.074;13.764;2023-07-31T09:00:11;99544.44;;;20.85
43802;BMP280;29429;51.074;13.764;2023-07-31T09:03:08;99544.44;;;20.85
43802;BMP280;29429;51.074;13.764;2023-07-31T09:05:37;99548.22;;;20.84
43802;BMP280;29429;51.074;13.764;2023-07-31T09:08:09;99559.94;;;20.74
43802;BMP280;29429;51.074;13.764;2023-07-31T09:10:41;99561.81;;;20.79
43802;BMP280;29429;51.074;13.764;2023-07-31T09:13:10;99561.56;;;20.80
43802;BMP280;29429;51.074;13.764;2023-07-31T09:15:40;99556.13;;;20.80
43802;BMP280;29429;51.074;13.764;2023-07-31T09:18:09;99556.38;;;20.79
43802;BMP280;29429;51.074;13.764;2023-07-31T09:20:37;99545.28;;;20.80
43802;BMP280;29429;51.074;13.764;2023-07-31T09:25:34;99538.50;;;20.78
43802;BMP280;29429;51.074;13.764;2023-07-31T09:28:07;99533.59;;;20.85
43802;BMP280;29429;51.074;13.764;2023-07-31T09:30:47;99528.69;;;20.92
43802;BMP280;29429;51.074;13.764;2023-07-31T09:33:16;99524.59;;;20.99
43802;BMP280;29429;51.074;13.764;2023-07-31T09:35:44;99521.59;;;21.01
43802;BMP280;29429;51.074;13.764;2023-07-31T09:38:16;99518.34;;;20.99
43802;BMP280;29429;51.074;13.764;2023-07-31T09:40:50;99515.31;;;21.05
43802;BMP280;29429;51.074;13.764;2023-07-31T09:43:22;99521.03;;;21.14
43802;BMP280;29429;51.074;13.764;2023-07-31T09:45:57;99517.25;;;21.10
43802;BMP280;29429;51.074;13.764;2023-07-31T09:48:25;99511.50;;;21.16
43802;BMP280;29429;51.074;13.764;2023-07-31T09:50:55;99514.50;;;21.15
43802;BMP280;29429;51.074;13.764;2023-07-31T09:53:29;99512.81;;;21.24
43802;BMP280;29429;51.074;13.764;2023-07-31T09:55:59;99513.59;;;21.30
43802;BMP280;29429;51.074;13.764;2023-07-31T09:58:30;99519.28;;;21.33
43802;BMP280;29429;51.074;13.764;2023-07-31T10:01:24;99522.75;;;21.44
43802;BMP280;29429;51.074;13.764;2023-07-31T10:03:53;99509.66;;;21.51
43802;BMP280;29429;51.074;13.764;2023-07-31T10:06:21;99506.09;;;21.55
43802;BMP280;29429;51.074;13.764;2023-07-31T10:08:55;99505.53;;;21.58
43802;BMP280;29429;51.074;13.764;2023-07-31T10:11:25;99496.28;;;21.64
43802;BMP280;29429;51.074;13.764;2023-07-31T10:13:54;99496.78;;;21.66
43802;BMP280;29429;51.074;13.764;2023-07-31T10:16:22;99493.84;;;21.63
43802;BMP280;29429;51.074;13.764;2023-07-31T10:18:50;99494.91;;;21.67
43802;BMP280;29429;51.074;13.764;2023-07-31T10:21:19;99494.06;;;21.66
43802;BMP280;29429;51.074;13.764;2023-07-31T10:23:46;99491.88;;;21.73
43802;BMP280;29429;51.074;13.764;2023-07-31T10:26:16;99479.84;;;21.79
43802;BMP280;29429;51.074;13.764;2023-07-31T10:28:45;99476.31;;;21.84
43802;BMP280;29429;51.074;13.764;2023-07-31T10:31:17;99475.16;;;21.90
43802;BMP280;29429;51.074;13.764;2023-07-31T10:33:45;99474.84;;;21.97
43802;BMP280;29429;51.074;13.764;2023-07-31T10:36:21;99468.34;;;21.93
43802;BMP280;29429;51.074;13.764;2023-07-31T10:38:50;99471.50;;;22.05
43802;BMP280;29429;51.074;13.764;2023-07-31T10:41:23;99462.75;;;22.13
43802;BMP280;29429;51.074;13.764;2023-07-31T10:43:56;99468.19;;;22.13
43802;BMP280;29429;51.074;13.764;2023-07-31T10:46:24;99459.84;;;22.28
43802;BMP280;29429;51.074;13.764;2023-07-31T10:48:58;99456.97;;;22.43
43802;BMP280;29429;51.074;13.764;2023-07-31T10:55:25;99456.44;;;22.41
43802;BMP280;29429;51.074;13.764;2023-07-31T10:57:54;99452.09;;;22.40
43802;BMP280;29429;51.074;13.764;2023-07-31T11:00:30;99452.06;;;22.45
43802;BMP280;29429;51.074;13.764;2023-07-31T11:03:12;99446.84;;;22.49
43802;BMP280;29429;51.074;13.764;2023-07-31T11:05:59;99454.72;;;22.50
43802;BMP280;29429;51.074;13.764;2023-07-31T11:11:18;99444.22;;;22.62
43802;BMP280;29429;51.074;13.764;2023-07-31T11:13:51;99439.63;;;22.63
43802;BMP280;29429;51.074;13.764;2023-07-31T11:16:23;99437.16;;;22.66
43802;BMP280;29429;51.074;13.764;2023-07-31T11:18:53;99432.66;;;22.75
43802;BMP280;29429;51.074;13.764;2023-07-31T11:21:23;99432.31;;;22.82
43802;BMP280;29429;51.074;13.764;2023-07-31T11:23:52;99427.09;;;22.85
43802;BMP280;29429;51.074;13.764;2023-07-31T11:26:20;99427.47;;;22.79
43802;BMP280;29429;51.074;13.764;2023-07-31T11:28:49;99432.28;;;22.63
43802;BMP280;29429;51.074;13.764;2023-07-31T11:31:17;99433.13;;;22.59
43802;BMP280;29429;51.074;13.764;2023-07-31T11:33:45;99436.44;;;22.56
43802;BMP280;29429;51.074;13.764;2023-07-31T11:36:17;99442.06;;;22.64
43802;BMP280;29429;51.074;13.764;2023-07-31T11:38:47;99438.09;;;22.75
43802;BMP280;29429;51.074;13.764;2023-07-31T11:41:16;99425.50;;;22.84
43802;BMP280;29429;51.074;13.764;2023-07-31T11:43:46;99427.69;;;23.01
43802;BMP280;29429;51.074;13.764;2023-07-31T11:46:14;99421.38;;;23.06
43802;BMP280;29429;51.074;13.764;2023-07-31T11:48:43;99409.75;;;23.19
43802;BMP280;29429;51.074;13.764;2023-07-31T11:51:11;99408.41;;;23.35
43802;BMP280;29429;51.074;13.764;2023-07-31T11:53:49;99408.91;;;23.55
43802;BMP280;29429;51.074;13.764;2023-07-31T11:56:20;99409.03;;;23.78
43802;BMP280;29429;51.074;13.764;2023-07-31T11:59:07;99397.28;;;23.96
43802;BMP280;29429;51.074;13.764;2023-07-31T12:01:35;99393.97;;;24.12
43802;BMP280;29429;51.074;13.764;2023-07-31T12:04:03;99389.56;;;24.30
43802;BMP280;29429;51.074;13.764;2023-07-31T12:06:35;99385.00;;;24.53
43802;BMP280;29429;51.074;13.764;2023-07-31T12:09:06;99380.50;;;24.70
43802;BMP280;29429;51.074;13.764;2023-07-31T12:11:47;99380.34;;;24.80
43802;BMP280;29429;51.074;13.764;2023-07-31T12:14:25;99379.69;;;24.83
43802;BMP280;29429;51.074;13.764;2023-07-31T12:16:58;99377.66;;;24.89
43802;BMP280;29429;51.074;13.764;2023-07-31T12:19:26;99380.00;;;24.82
43802;BMP280;29429;51.074;13.764;2023-07-31T12:21:58;99371.09;;;24.90
43802;BMP280;29429;51.074;13.764;2023-07-31T12:24:27;99363.97;;;25.03
43802;BMP280;29429;51.074;13.764;2023-07-31T12:26:54;99357.09;;;25.05
43802;BMP280;29429;51.074;13.764;2023-07-31T12:29:22;99353.44;;;25.10
43802;BMP280;29429;51.074;13.764;2023-07-31T12:31:50;99338.78;;;25.28
43802;BMP280;29429;51.074;13.764;2023-07-31T12:34:19;99345.56;;;25.30
43802;BMP280;29429;51.074;13.764;2023-07-31T12:36:48;99342.97;;;25.25
43802;BMP280;29429;51.074;13.764;2023-07-31T12:39:18;99333.56;;;25.18
43802;BMP280;29429;51.074;13.764;2023-07-31T12:41:45;99339.56;;;25.28
43802;BMP280;29429;51.074;13.764;2023-07-31T12:44:13;99336.34;;;25.26
43802;BMP280;29429;51.074;13.764;2023-07-31T12:46:40;99323.09;;;25.33
43802;BMP280;29429;51.074;13.764;2023-07-31T12:49:08;99320.16;;;25.30
43802;BMP280;29429;51.074;13.764;2023-07-31T12:51:36;99311.69;;;25.09
43802;BMP280;29429;51.074;13.764;2023-07-31T12:54:03;99306.94;;;25.23
43802;BMP280;29429;51.074;13.764;2023-07-31T12:56:31;99302.56;;;25.44
43802;BMP280;29429;51.074;13.764;2023-07-31T12:58:59;99299.78;;;25.58
43802;BMP280;29429;51.074;13.764;2023-07-31T13:01:27;99299.06;;;25.75
43802;BMP280;29429;51.074;13.764;2023-07-31T13:03:54;99290.47;;;25.59
43802;BMP280;29429;51.074;13.764;2023-07-31T13:06:22;99282.09;;;25.56
43802;BMP280;29429;51.074;13.764;2023-07-31T13:08:49;99279.84;;;25.58
43802;BMP280;29429;51.074;13.764;2023-07-31T13:11:17;99285.81;;;25.60
43802;BMP280;29429;51.074;13.764;2023-07-31T13:13:44;99277.16;;;25.66
43802;BMP280;29429;51.074;13.764;2023-07-31T13:16:11;99276.88;;;25.76
43802;BMP280;29429;51.074;13.764;2023-07-31T13:18:39;99284.13;;;25.81
43802;BMP280;29429;51.074;13.764;2023-07-31T13:21:06;99278.81;;;25.84
43802;BMP280;29429;51.074;13.764;2023-07-31T13:23:34;99280.44;;;25.85
43802;BMP280;29429;51.074;13.764;2023-07-31T13:26:01;99291.00;;;25.70
43802;BMP280;29429;51.074;13.764;2023-07-31T13:28:28;99290.03;;;25.43
43802;BMP280;29429;51.074;13.764;2023-07-31T13:30:56;99278.94;;;25.40
43802;BMP280;29429;51.074;13.764;2023-07-31T13:33:23;99271.59;;;25.18
43802;BMP280;29429;51.074;13.764;2023-07-31T13:36:04;99287.25;;;25.04
43802;BMP280;29429;51.074;13.764;2023-07-31T13:38:32;99263.78;;;25.03
43802;BMP280;29429;51.074;13.764;2023-07-31T13:40:59;99260.53;;;25.23
43802;BMP280;29429;51.074;13.764;2023-07-31T13:43:27;99257.53;;;25.33
43802;BMP280;29429;51.074;13.764;2023-07-31T13:45:54;99256.78;;;25.41
43802;BMP280;29429;51.074;13.764;2023-07-31T13:48:21;99250.56;;;25.50
43802;BMP280;29429;51.074;13.764;2023-07-31T13:50:49;99254.22;;;25.45
43802;BMP280;29429;51.074;13.764;2023-07-31T13:53:16;99242.00;;;25.42
43802;BMP280;29429;51.074;13.764;2023-07-31T13:55:43;99245.22;;;25.44
43802;BMP280;29429;51.074;13.764;2023-07-31T13:58:12;99236.91;;;25.50
43802;BMP280;29429;51.074;13.764;2023-07-31T14:00:40;99234.34;;;25.22
43802;BMP280;29429;51.074;13.764;2023-07-31T14:03:07;99235.00;;;24.97
43802;BMP280;29429;51.074;13.764;2023-07-31T14:05:35;99241.31;;;25.06
43802;BMP280;29429;51.074;13.764;2023-07-31T14:08:02;99228.78;;;25.05
43802;BMP280;29429;51.074;13.764;2023-07-31T14:10:29;99230.63;;;25.18
43802;BMP280;29429;51.074;13.764;2023-07-31T14:12:57;99228.47;;;25.37
43802;BMP280;29429;51.074;13.764;2023-07-31T14:15:24;99222.88;;;25.42
43802;BMP280;29429;51.074;13.764;2023-07-31T14:17:52;99218.59;;;25.50
43802;BMP280;29429;51.074;13.764;2023-07-31T14:20:19;99218.81;;;25.31
43802;BMP280;29429;51.074;13.764;2023-07-31T14:22:47;99216.69;;;25.28
43802;BMP280;29429;51.074;13.764;2023-07-31T14:25:14;99230.06;;;24.99